Benson, MN

5:42 AM CST on December 03, 2016 (GMT -0600)
Benson Municipal

Weather History for KBBB - May, 2013

Change the Weather History Date:

Sunday, May 19, 2013

  Actual Average Record
Temperature  
Mean Temperature 69 °F -  
Max Temperature 78 °F 71 °F 90 °F (1992)
Min Temperature 60 °F 49 °F 28 °F (2002)
Cooling Degree Days 4    
Growing Degree Days 19 (Base 50)    
Moisture  
Dew Point 63 °F    
Average Humidity 84    
Maximum Humidity 100    
Minimum Humidity 57    
Precipitation  
Precipitation 0.32 in - - ()
Sea Level Pressure  
Sea Level Pressure 29.63 in    
Wind  
Wind Speed 11 mph (South)    
Max Wind Speed 21 mph    
Max Gust Speed 28 mph    
Visibility 8 miles    
Events Rain , Thunderstorm    
Averages and records for this station are not official NWS values.
T = Trace of Precipitation, MM = Missing Value Source: NWS Daily Summary

Daily Weather History Graph

Daily Weather History Graph

Search for Another Location

Airport or City:

Trip Planner

Search our weather history database for the weather conditions in past years. The results will help you decide how hot, cold, wet, or windy it might be!

Date:

Astronomy

May. 19, 2013 Rise Set
Actual Time 5:47 AM CDT 8:50 PM CDT
Civil Twilight 5:12 AM CDT 9:26 PM CDT
Nautical Twilight 4:27 AM CDT 10:11 PM CDT
Astronomical Twilight 3:33 AM CDT 11:06 PM CDT
Moon 2:40 PM CDT (5/19) 2:29 AM CDT (5/19)
Length of Visible Light 16h 13m
Length of Day
15h 02m
Waxing Gibbous, 65% of the Moon is Illuminated
May 19
Waxing Gibbous
May 24
Full
May 31
Last Quarter
Jun 8
New
Jun 16
First Quarter

Hourly Weather History & Observations

Time (CDT) Temp. Dew Point Humidity Pressure Visibility Wind Dir Wind Speed Gust Speed Precip Events Conditions
12:12 AM 69.8 °F 62.6 °F 78% 29.71 in 10.0 mi SSE 9.2 mph 17.3 mph N/A   Clear
12:33 AM 69.8 °F 62.6 °F 78% 29.70 in 10.0 mi SSE 12.7 mph 18.4 mph N/A   Scattered Clouds
12:53 AM 69.8 °F 62.6 °F 78% 29.71 in 10.0 mi SSE 9.2 mph - N/A   Scattered Clouds
1:12 AM 69.8 °F 62.6 °F 78% 29.71 in 10.0 mi SSE 12.7 mph 19.6 mph N/A   Mostly Cloudy
1:33 AM 69.8 °F 62.6 °F 78% 29.70 in 10.0 mi SSE 16.1 mph 21.9 mph N/A   Overcast
1:53 AM 69.8 °F 62.6 °F 78% 29.70 in 10.0 mi SSE 12.7 mph 21.9 mph N/A   Mostly Cloudy
2:12 AM 69.8 °F 62.6 °F 78% 29.71 in 10.0 mi SSE 9.2 mph - N/A   Overcast
2:33 AM 69.8 °F 62.6 °F 78% 29.70 in 10.0 mi SSE 13.8 mph 19.6 mph N/A   Mostly Cloudy
2:52 AM 69.8 °F 62.6 °F 78% 29.71 in 10.0 mi SSE 12.7 mph 18.4 mph N/A   Mostly Cloudy
3:12 AM 69.8 °F 62.6 °F 78% 29.71 in 10.0 mi SSE 11.5 mph 17.3 mph N/A   Overcast
3:33 AM 69.8 °F 62.6 °F 78% 29.70 in 10.0 mi SSE 10.4 mph 17.3 mph N/A   Mostly Cloudy
3:52 AM 69.8 °F 62.6 °F 78% 29.68 in 10.0 mi SSE 11.5 mph - N/A   Mostly Cloudy
4:12 AM 69.8 °F 62.6 °F 78% 29.69 in 10.0 mi South 11.5 mph 18.4 mph N/A   Mostly Cloudy
4:32 AM 64.4 °F 60.8 °F 88% 29.72 in 7.0 mi WSW 15.0 mph - 0.07 in Rain , Thunderstorm Rain
4:53 AM 62.6 °F 60.8 °F 94% 29.72 in 7.0 mi South 11.5 mph 17.3 mph 0.17 in Rain , Thunderstorm Thunderstorms and Rain
5:13 AM 62.6 °F 62.6 °F 100% 29.68 in 4.0 mi Calm Calm - 0.06 in Rain Rain
5:32 AM 62.6 °F 62.6 °F 100% 29.67 in 10.0 mi SE 4.6 mph - 0.10 in Rain Light Rain
5:53 AM 62.6 °F 60.8 °F 94% 29.63 in 7.0 mi East 13.8 mph - 0.12 in Rain Light Rain
6:13 AM 62.6 °F 60.8 °F 94% 29.64 in 10.0 mi SE 12.7 mph 18.4 mph N/A Thunderstorm Unknown
6:32 AM 62.6 °F 60.8 °F 94% 29.65 in 10.0 mi SSE 9.2 mph 17.3 mph N/A Rain Light Rain
6:53 AM 62.6 °F 62.6 °F 100% 29.63 in 10.0 mi SE 9.2 mph - N/A   Scattered Clouds
7:13 AM 64.4 °F 62.6 °F 94% 29.61 in 5.0 mi SE 16.1 mph 23.0 mph N/A Rain Light Rain
7:32 AM 64.4 °F 62.6 °F 94% 29.59 in 4.0 mi ESE 12.7 mph 19.6 mph N/A Rain Light Rain
7:53 AM 64.4 °F 62.6 °F 94% 29.60 in 4.0 mi SE 10.4 mph 17.3 mph N/A   Scattered Clouds
8:12 AM 64.4 °F 62.6 °F 94% 29.62 in 7.0 mi SSE 10.4 mph - N/A Rain Light Rain
8:32 AM 66.2 °F 64.4 °F 94% 29.63 in 7.0 mi South 12.7 mph 20.7 mph N/A   Scattered Clouds
8:53 AM 66.2 °F 64.4 °F 94% 29.65 in 10.0 mi South 15.0 mph 18.4 mph N/A   Scattered Clouds
9:12 AM 66.2 °F 64.4 °F 94% 29.65 in 7.0 mi South 16.1 mph 24.2 mph N/A   Overcast
9:32 AM 66.2 °F 64.4 °F 94% 29.65 in 7.0 mi South 17.3 mph 21.9 mph N/A   Mostly Cloudy
9:53 AM 69.8 °F 64.4 °F 83% 29.64 in 10.0 mi South 18.4 mph 27.6 mph N/A   Scattered Clouds
10:12 AM 71.6 °F 64.4 °F 78% 29.64 in 10.0 mi South 17.3 mph 25.3 mph N/A   Scattered Clouds
10:33 AM 69.8 °F 64.4 °F 83% 29.63 in 10.0 mi South 19.6 mph 25.3 mph N/A   Mostly Cloudy
10:53 AM 73.4 °F 64.4 °F 73% 29.63 in 10.0 mi South 18.4 mph - N/A   Mostly Cloudy
11:12 AM 71.6 °F 64.4 °F 78% 29.63 in 10.0 mi SSW 16.1 mph 24.2 mph N/A   Mostly Cloudy
11:33 AM 73.4 °F 64.4 °F 73% 29.62 in 10.0 mi SSW 15.0 mph - N/A   Mostly Cloudy
11:53 AM 75.2 °F 64.4 °F 69% 29.62 in 10.0 mi SSW 16.1 mph 21.9 mph N/A   Mostly Cloudy
12:12 PM 75.2 °F 62.6 °F 65% 29.63 in 10.0 mi SW 19.6 mph 25.3 mph N/A   Scattered Clouds
12:33 PM 78.8 °F 62.6 °F 57% 29.62 in 10.0 mi SSW 20.7 mph 26.5 mph N/A   Scattered Clouds
12:53 PM 77.0 °F 62.6 °F 61% 29.62 in 10.0 mi SW 20.7 mph 25.3 mph N/A   Scattered Clouds
1:12 PM 78.8 °F 62.6 °F 57% 29.61 in 10.0 mi SSW 16.1 mph 21.9 mph N/A   Scattered Clouds
1:33 PM 78.8 °F 64.4 °F 61% 29.61 in 10.0 mi SSW 16.1 mph 21.9 mph N/A   Scattered Clouds
1:52 PM 78.8 °F 64.4 °F 61% 29.60 in 10.0 mi SSW 13.8 mph 18.4 mph N/A   Clear
2:12 PM 77.0 °F 64.4 °F 65% 29.59 in 10.0 mi SW 11.5 mph - N/A   Scattered Clouds
2:33 PM 77.0 °F 62.6 °F 61% 29.60 in 10.0 mi SW 12.7 mph - N/A   Scattered Clouds
2:52 PM 75.2 °F 62.6 °F 65% 29.61 in 10.0 mi SW 12.7 mph 18.4 mph N/A   Scattered Clouds
3:13 PM 73.4 °F 62.6 °F 69% 29.62 in 10.0 mi SW 13.8 mph - N/A   Scattered Clouds
3:32 PM 73.4 °F 62.6 °F 69% 29.62 in 10.0 mi SW 10.4 mph - N/A   Scattered Clouds
4:13 PM 71.6 °F 64.4 °F 78% 29.62 in 10.0 mi SW 10.4 mph - N/A   Light Drizzle
4:32 PM 71.6 °F 64.4 °F 78% 29.62 in 10.0 mi SW 11.5 mph - N/A Rain Light Rain
4:52 PM 69.8 °F 64.4 °F 83% 29.61 in 7.0 mi SW 6.9 mph - N/A   Light Drizzle
5:13 PM 69.8 °F 64.4 °F 83% 29.61 in 7.0 mi WSW 9.2 mph - N/A   Drizzle
5:32 PM 68.0 °F 64.4 °F 88% 29.61 in 7.0 mi WSW 9.2 mph - N/A Rain Light Rain
5:53 PM 66.2 °F 62.6 °F 88% 29.61 in 10.0 mi WSW 8.1 mph - N/A Rain Light Rain
6:13 PM 66.2 °F 62.6 °F 88% 29.61 in 10.0 mi SW 8.1 mph - 0.01 in Rain Rain
6:32 PM 66.2 °F 62.6 °F 88% 29.60 in 7.0 mi SSW 8.1 mph - 0.01 in Rain Light Rain
6:53 PM 66.2 °F 62.6 °F 88% 29.59 in 7.0 mi South 6.9 mph - 0.01 in   Drizzle
7:12 PM 66.2 °F 62.6 °F 88% 29.59 in 7.0 mi South 5.8 mph - 0.01 in Rain Rain
7:32 PM 66.2 °F 62.6 °F 88% 29.57 in 7.0 mi SSE 8.1 mph - 0.01 in Rain Light Rain
7:53 PM 64.4 °F 62.6 °F 94% 29.55 in 10.0 mi East 3.5 mph - 0.01 in   Light Drizzle
8:12 PM 64.4 °F 62.6 °F 94% 29.56 in 10.0 mi Calm Calm - 0.01 in   Clear
8:32 PM 64.4 °F 62.6 °F 94% 29.57 in 7.0 mi SE 3.5 mph - 0.01 in   Clear
8:53 PM 64.4 °F 60.8 °F 88% 29.57 in 7.0 mi ESE 4.6 mph - 0.01 in   Clear
9:12 PM 64.4 °F 62.6 °F 94% 29.58 in 5.0 mi SE 4.6 mph - N/A   Clear
9:33 PM 62.6 °F 62.6 °F 100% 29.58 in 5.0 mi SE 5.8 mph - N/A   Scattered Clouds
9:53 PM 62.6 °F 62.6 °F 100% 29.57 in 5.0 mi ESE 5.8 mph - N/A   Mostly Cloudy
10:12 PM 62.6 °F 60.8 °F 94% 29.58 in 5.0 mi WSW 5.8 mph - N/A   Overcast
10:33 PM 62.6 °F 60.8 °F 94% 29.58 in 5.0 mi South 3.5 mph - N/A   Overcast
10:52 PM 64.4 °F 62.6 °F 94% 29.57 in 7.0 mi South 3.5 mph - N/A   Overcast
11:12 PM 62.6 °F 60.8 °F 94% 29.55 in 5.0 mi Calm Calm - N/A   Mostly Cloudy
11:33 PM 60.8 °F 60.8 °F 100% 29.56 in 4.0 mi Calm Calm - N/A   Scattered Clouds
11:52 PM 60.8 °F 60.8 °F 100% 29.56 in 4.0 mi Calm Calm - N/A   Clear